Terminal Aerodrome Forecast
Issued by NWS Grand Forks, ND

Home | Current Version | Previous Version | Graphics & Text | Print | Product List | Glossary On
Versions: 1 2 3 4 5 6 7 8 9 10 11 12 13 14 15 16 17 18 19
000
FTUS43 KFGF 281500 AAA
TAFFAR
TAF AMD
KFAR 281526Z 2815/2912 16015G25KT 5SM BR OVC007
     FM281800 16012KT P6SM OVC010
     FM282100 VRB06KT P6SM OVC012
     FM290300 33020KT P6SM OVC015=

USA.gov is the U.S. government's official web portal to all federal, state and local government web resources and services.